sensor_id;sensor_type;location;lat;lon;timestamp;temperature;humidity
20574;DHT22;10445;50.216;7.912;2023-12-04T00:00:37;-2.80;36.90
20574;DHT22;10445;50.216;7.912;2023-12-04T00:03:06;-2.90;37.40
20574;DHT22;10445;50.216;7.912;2023-12-04T00:05:34;-2.90;37.20
20574;DHT22;10445;50.216;7.912;2023-12-04T00:08:03;-2.90;37.20
20574;DHT22;10445;50.216;7.912;2023-12-04T00:10:33;-2.90;37.50
20574;DHT22;10445;50.216;7.912;2023-12-04T00:13:01;-3.00;37.40
20574;DHT22;10445;50.216;7.912;2023-12-04T00:15:29;-3.00;37.90
20574;DHT22;10445;50.216;7.912;2023-12-04T00:17:57;-2.90;37.60
20574;DHT22;10445;50.216;7.912;2023-12-04T00:20:26;-3.00;37.50
20574;DHT22;10445;50.216;7.912;2023-12-04T00:22:55;-3.10;38.20
20574;DHT22;10445;50.216;7.912;2023-12-04T00:25:23;-3.10;38.40
20574;DHT22;10445;50.216;7.912;2023-12-04T00:27:53;-3.20;39.60
20574;DHT22;10445;50.216;7.912;2023-12-04T00:30:21;-3.20;40.40
20574;DHT22;10445;50.216;7.912;2023-12-04T00:32:49;-3.20;40.70
20574;DHT22;10445;50.216;7.912;2023-12-04T00:35:18;-3.30;41.50
20574;DHT22;10445;50.216;7.912;2023-12-04T00:37:46;-3.30;41.90
20574;DHT22;10445;50.216;7.912;2023-12-04T00:40:15;-3.40;42.40
20574;DHT22;10445;50.216;7.912;2023-12-04T00:42:43;-3.40;43.40
20574;DHT22;10445;50.216;7.912;2023-12-04T00:45:13;-3.40;44.20
20574;DHT22;10445;50.216;7.912;2023-12-04T00:47:41;-3.40;44.80
20574;DHT22;10445;50.216;7.912;2023-12-04T00:50:11;-3.30;45.10
20574;DHT22;10445;50.216;7.912;2023-12-04T00:52:39;-3.30;44.40
20574;DHT22;10445;50.216;7.912;2023-12-04T00:55:08;-3.30;44.00
20574;DHT22;10445;50.216;7.912;2023-12-04T00:57:36;-3.30;43.30
20574;DHT22;10445;50.216;7.912;2023-12-04T01:00:06;-3.30;43.50
20574;DHT22;10445;50.216;7.912;2023-12-04T01:02:35;-3.40;43.10
20574;DHT22;10445;50.216;7.912;2023-12-04T01:05:04;-3.40;43.30
20574;DHT22;10445;50.216;7.912;2023-12-04T01:07:32;-3.40;43.00
20574;DHT22;10445;50.216;7.912;2023-12-04T01:10:00;-3.40;43.20
20574;DHT22;10445;50.216;7.912;2023-12-04T01:12:29;-3.40;43.60
20574;DHT22;10445;50.216;7.912;2023-12-04T01:14:58;-3.30;44.30
20574;DHT22;10445;50.216;7.912;2023-12-04T01:17:26;-3.30;43.00
20574;DHT22;10445;50.216;7.912;2023-12-04T01:19:56;-3.30;43.20
20574;DHT22;10445;50.216;7.912;2023-12-04T01:22:24;-3.30;43.10
20574;DHT22;10445;50.216;7.912;2023-12-04T01:24:53;-3.30;42.90
20574;DHT22;10445;50.216;7.912;2023-12-04T01:27:21;-3.30;42.90
20574;DHT22;10445;50.216;7.912;2023-12-04T01:29:50;-3.30;42.80
20574;DHT22;10445;50.216;7.912;2023-12-04T01:32:18;-3.30;43.30
20574;DHT22;10445;50.216;7.912;2023-12-04T01:34:46;-3.30;43.30
20574;DHT22;10445;50.216;7.912;2023-12-04T01:37:16;-3.30;43.30
20574;DHT22;10445;50.216;7.912;2023-12-04T01:39:44;-3.20;42.70
20574;DHT22;10445;50.216;7.912;2023-12-04T01:42:13;-3.30;42.70
20574;DHT22;10445;50.216;7.912;2023-12-04T01:44:41;-3.30;43.10
20574;DHT22;10445;50.216;7.912;2023-12-04T01:47:10;-3.30;43.00
20574;DHT22;10445;50.216;7.912;2023-12-04T01:49:38;-3.30;43.30
20574;DHT22;10445;50.216;7.912;2023-12-04T01:52:07;-3.30;43.70
20574;DHT22;10445;50.216;7.912;2023-12-04T01:54:37;-3.30;44.00
20574;DHT22;10445;50.216;7.912;2023-12-04T01:57:06;-3.40;44.90
20574;DHT22;10445;50.216;7.912;2023-12-04T01:59:35;-3.40;45.30
20574;DHT22;10445;50.216;7.912;2023-12-04T02:02:04;-3.40;46.90
20574;DHT22;10445;50.216;7.912;2023-12-04T02:04:34;-3.40;47.70
20574;DHT22;10445;50.216;7.912;2023-12-04T02:07:02;-3.40;48.40
20574;DHT22;10445;50.216;7.912;2023-12-04T02:09:31;-3.40;49.10
20574;DHT22;10445;50.216;7.912;2023-12-04T02:12:01;-3.50;49.40
20574;DHT22;10445;50.216;7.912;2023-12-04T02:14:29;-3.50;49.20
20574;DHT22;10445;50.216;7.912;2023-12-04T02:16:58;-3.40;49.00
20574;DHT22;10445;50.216;7.912;2023-12-04T02:19:29;-3.50;50.30
20574;DHT22;10445;50.216;7.912;2023-12-04T02:21:57;-3.40;49.60
20574;DHT22;10445;50.216;7.912;2023-12-04T02:24:27;-3.40;49.70
20574;DHT22;10445;50.216;7.912;2023-12-04T02:27:04;-3.40;50.10
20574;DHT22;10445;50.216;7.912;2023-12-04T02:29:38;-3.40;49.90
20574;DHT22;10445;50.216;7.912;2023-12-04T02:32:08;-3.40;50.20
20574;DHT22;10445;50.216;7.912;2023-12-04T02:34:40;-3.40;50.40
20574;DHT22;10445;50.216;7.912;2023-12-04T02:37:11;-3.40;49.80
20574;DHT22;10445;50.216;7.912;2023-12-04T02:39:41;-3.40;49.30
20574;DHT22;10445;50.216;7.912;2023-12-04T02:42:12;-3.40;49.10
20574;DHT22;10445;50.216;7.912;2023-12-04T02:44:41;-3.40;48.70
20574;DHT22;10445;50.216;7.912;2023-12-04T02:47:10;-3.50;49.30
20574;DHT22;10445;50.216;7.912;2023-12-04T02:49:38;-3.50;49.20
20574;DHT22;10445;50.216;7.912;2023-12-04T02:52:07;-3.50;49.00
20574;DHT22;10445;50.216;7.912;2023-12-04T02:54:36;-3.50;48.70
20574;DHT22;10445;50.216;7.912;2023-12-04T02:57:05;-3.50;48.20
20574;DHT22;10445;50.216;7.912;2023-12-04T02:59:34;-3.40;47.80
20574;DHT22;10445;50.216;7.912;2023-12-04T03:02:02;-3.50;47.50
20574;DHT22;10445;50.216;7.912;2023-12-04T03:04:31;-3.50;47.50
20574;DHT22;10445;50.216;7.912;2023-12-04T03:07:00;-3.50;47.10
20574;DHT22;10445;50.216;7.912;2023-12-04T03:09:28;-3.60;47.10
20574;DHT22;10445;50.216;7.912;2023-12-04T03:12:16;-3.60;47.50
20574;DHT22;10445;50.216;7.912;2023-12-04T03:14:45;-3.60;48.00
20574;DHT22;10445;50.216;7.912;2023-12-04T03:17:13;-3.70;48.20
20574;DHT22;10445;50.216;7.912;2023-12-04T03:19:41;-3.70;48.70
20574;DHT22;10445;50.216;7.912;2023-12-04T03:22:09;-3.70;48.60
20574;DHT22;10445;50.216;7.912;2023-12-04T03:24:38;-3.70;48.10
20574;DHT22;10445;50.216;7.912;2023-12-04T03:27:06;-3.70;47.70
20574;DHT22;10445;50.216;7.912;2023-12-04T03:29:36;-3.70;47.40
20574;DHT22;10445;50.216;7.912;2023-12-04T03:32:04;-3.70;47.30
20574;DHT22;10445;50.216;7.912;2023-12-04T03:34:33;-3.70;47.00
20574;DHT22;10445;50.216;7.912;2023-12-04T03:37:01;-3.60;46.60
20574;DHT22;10445;50.216;7.912;2023-12-04T03:39:29;-3.60;46.10
20574;DHT22;10445;50.216;7.912;2023-12-04T03:41:58;-3.60;45.90
20574;DHT22;10445;50.216;7.912;2023-12-04T03:44:26;-3.60;45.60
20574;DHT22;10445;50.216;7.912;2023-12-04T03:46:56;-3.60;45.10
20574;DHT22;10445;50.216;7.912;2023-12-04T03:49:24;-3.60;44.90
20574;DHT22;10445;50.216;7.912;2023-12-04T03:51:52;-3.60;44.50
20574;DHT22;10445;50.216;7.912;2023-12-04T03:54:20;-3.60;43.80
20574;DHT22;10445;50.216;7.912;2023-12-04T03:56:49;-3.60;43.50
20574;DHT22;10445;50.216;7.912;2023-12-04T03:59:17;-3.50;42.80
20574;DHT22;10445;50.216;7.912;2023-12-04T04:01:45;-3.50;42.60
20574;DHT22;10445;50.216;7.912;2023-12-04T04:04:15;-3.50;42.40
20574;DHT22;10445;50.216;7.912;2023-12-04T04:06:43;-3.50;41.90
20574;DHT22;10445;50.216;7.912;2023-12-04T04:09:12;-3.50;41.30
20574;DHT22;10445;50.216;7.912;2023-12-04T04:11:40;-3.50;41.30
20574;DHT22;10445;50.216;7.912;2023-12-04T04:14:08;-3.50;40.90
20574;DHT22;10445;50.216;7.912;2023-12-04T04:16:36;-3.50;40.80
20574;DHT22;10445;50.216;7.912;2023-12-04T04:19:06;-3.50;40.40
20574;DHT22;10445;50.216;7.912;2023-12-04T04:21:39;-3.50;40.20
20574;DHT22;10445;50.216;7.912;2023-12-04T04:24:07;-3.50;40.50
20574;DHT22;10445;50.216;7.912;2023-12-04T04:26:36;-3.50;39.90
20574;DHT22;10445;50.216;7.912;2023-12-04T04:29:04;-3.50;39.70
20574;DHT22;10445;50.216;7.912;2023-12-04T04:31:32;-3.50;39.20
20574;DHT22;10445;50.216;7.912;2023-12-04T04:34:01;-3.50;39.80
20574;DHT22;10445;50.216;7.912;2023-12-04T04:36:30;-3.50;38.70
20574;DHT22;10445;50.216;7.912;2023-12-04T04:38:59;-3.50;38.90
20574;DHT22;10445;50.216;7.912;2023-12-04T04:41:27;-3.50;37.80
20574;DHT22;10445;50.216;7.912;2023-12-04T04:43:56;-3.60;36.50
20574;DHT22;10445;50.216;7.912;2023-12-04T04:46:24;-3.50;36.50
20574;DHT22;10445;50.216;7.912;2023-12-04T04:48:54;-3.50;35.00
20574;DHT22;10445;50.216;7.912;2023-12-04T04:51:23;-3.40;32.60
20574;DHT22;10445;50.216;7.912;2023-12-04T04:53:51;-3.40;31.40
20574;DHT22;10445;50.216;7.912;2023-12-04T04:56:20;-3.40;31.40
20574;DHT22;10445;50.216;7.912;2023-12-04T04:58:49;-3.40;31.10
20574;DHT22;10445;50.216;7.912;2023-12-04T05:01:19;-3.40;30.40
20574;DHT22;10445;50.216;7.912;2023-12-04T05:03:48;-3.40;30.30
20574;DHT22;10445;50.216;7.912;2023-12-04T05:06:16;-3.40;29.40
20574;DHT22;10445;50.216;7.912;2023-12-04T05:08:44;-3.40;29.20
20574;DHT22;10445;50.216;7.912;2023-12-04T05:11:14;-3.40;28.40
20574;DHT22;10445;50.216;7.912;2023-12-04T05:13:44;-3.40;28.20
20574;DHT22;10445;50.216;7.912;2023-12-04T05:16:13;-3.30;26.50
20574;DHT22;10445;50.216;7.912;2023-12-04T05:18:41;-3.30;26.30
20574;DHT22;10445;50.216;7.912;2023-12-04T05:21:10;-3.20;25.10
20574;DHT22;10445;50.216;7.912;2023-12-04T05:23:38;-3.10;23.40
20574;DHT22;10445;50.216;7.912;2023-12-04T05:26:07;-3.10;22.00
20574;DHT22;10445;50.216;7.912;2023-12-04T05:28:37;-3.10;22.40
20574;DHT22;10445;50.216;7.912;2023-12-04T05:31:07;-3.00;22.20
20574;DHT22;10445;50.216;7.912;2023-12-04T05:33:35;-3.00;21.30
20574;DHT22;10445;50.216;7.912;2023-12-04T05:36:05;-3.00;20.10
20574;DHT22;10445;50.216;7.912;2023-12-04T05:38:34;-2.90;18.50
20574;DHT22;10445;50.216;7.912;2023-12-04T05:41:02;-2.90;18.60
20574;DHT22;10445;50.216;7.912;2023-12-04T05:43:31;-2.90;18.40
20574;DHT22;10445;50.216;7.912;2023-12-04T05:45:59;-2.90;19.00
20574;DHT22;10445;50.216;7.912;2023-12-04T05:48:28;-2.90;18.80
20574;DHT22;10445;50.216;7.912;2023-12-04T05:50:57;-2.80;17.90
20574;DHT22;10445;50.216;7.912;2023-12-04T05:53:25;-2.80;17.90
20574;DHT22;10445;50.216;7.912;2023-12-04T05:55:53;-2.80;18.40
20574;DHT22;10445;50.216;7.912;2023-12-04T05:58:21;-2.90;18.30
20574;DHT22;10445;50.216;7.912;2023-12-04T06:00:50;-2.90;18.80
20574;DHT22;10445;50.216;7.912;2023-12-04T06:03:18;-2.90;18.00
20574;DHT22;10445;50.216;7.912;2023-12-04T06:05:48;-2.90;18.90
20574;DHT22;10445;50.216;7.912;2023-12-04T06:08:19;-2.90;18.20
20574;DHT22;10445;50.216;7.912;2023-12-04T06:10:47;-2.90;17.90
20574;DHT22;10445;50.216;7.912;2023-12-04T06:13:16;-2.80;16.80
20574;DHT22;10445;50.216;7.912;2023-12-04T06:15:44;-2.80;16.40
20574;DHT22;10445;50.216;7.912;2023-12-04T06:18:12;-2.80;15.90
20574;DHT22;10445;50.216;7.912;2023-12-04T06:20:41;-2.80;15.60
20574;DHT22;10445;50.216;7.912;2023-12-04T06:23:11;-2.80;15.00
20574;DHT22;10445;50.216;7.912;2023-12-04T06:25:40;-2.70;15.20
20574;DHT22;10445;50.216;7.912;2023-12-04T06:28:09;-2.80;15.70
20574;DHT22;10445;50.216;7.912;2023-12-04T06:30:38;-2.80;16.20
20574;DHT22;10445;50.216;7.912;2023-12-04T06:33:08;-2.80;15.30
20574;DHT22;10445;50.216;7.912;2023-12-04T06:35:36;-2.80;15.40
20574;DHT22;10445;50.216;7.912;2023-12-04T06:38:06;-2.70;15.60
20574;DHT22;10445;50.216;7.912;2023-12-04T06:40:37;-2.70;14.50
20574;DHT22;10445;50.216;7.912;2023-12-04T06:43:06;-2.60;14.30
20574;DHT22;10445;50.216;7.912;2023-12-04T06:45:35;-2.60;13.00
20574;DHT22;10445;50.216;7.912;2023-12-04T06:48:04;-2.60;13.40
20574;DHT22;10445;50.216;7.912;2023-12-04T06:50:32;-2.60;13.00
20574;DHT22;10445;50.216;7.912;2023-12-04T06:53:00;-2.50;12.50
20574;DHT22;10445;50.216;7.912;2023-12-04T06:55:29;-2.50;12.30
20574;DHT22;10445;50.216;7.912;2023-12-04T06:57:58;-2.50;11.60
20574;DHT22;10445;50.216;7.912;2023-12-04T07:00:27;-2.50;10.50
20574;DHT22;10445;50.216;7.912;2023-12-04T07:02:55;-2.40;10.60
20574;DHT22;10445;50.216;7.912;2023-12-04T07:05:23;-2.40;12.20
20574;DHT22;10445;50.216;7.912;2023-12-04T07:07:52;-2.40;10.60
20574;DHT22;10445;50.216;7.912;2023-12-04T07:10:20;-2.30;10.40
20574;DHT22;10445;50.216;7.912;2023-12-04T07:12:48;-2.40;11.10
20574;DHT22;10445;50.216;7.912;2023-12-04T07:15:18;-2.40;11.30
20574;DHT22;10445;50.216;7.912;2023-12-04T07:17:46;-2.40;10.00
20574;DHT22;10445;50.216;7.912;2023-12-04T07:20:15;-2.40;10.60
20574;DHT22;10445;50.216;7.912;2023-12-04T07:22:43;-2.40;10.10
20574;DHT22;10445;50.216;7.912;2023-12-04T07:25:11;-2.30;8.80
20574;DHT22;10445;50.216;7.912;2023-12-04T07:27:39;-2.30;10.40
20574;DHT22;10445;50.216;7.912;2023-12-04T07:30:08;-2.30;10.90
20574;DHT22;10445;50.216;7.912;2023-12-04T07:32:38;-2.40;12.20
20574;DHT22;10445;50.216;7.912;2023-12-04T07:35:07;-2.40;11.20
20574;DHT22;10445;50.216;7.912;2023-12-04T07:37:35;-2.30;10.90
20574;DHT22;10445;50.216;7.912;2023-12-04T07:40:05;-2.40;11.30
20574;DHT22;10445;50.216;7.912;2023-12-04T07:42:35;-2.40;12.60
20574;DHT22;10445;50.216;7.912;2023-12-04T07:45:06;-2.40;12.20
20574;DHT22;10445;50.216;7.912;2023-12-04T07:47:35;-2.40;12.80
20574;DHT22;10445;50.216;7.912;2023-12-04T07:50:06;-2.40;13.00
20574;DHT22;10445;50.216;7.912;2023-12-04T07:52:34;-2.40;12.90
20574;DHT22;10445;50.216;7.912;2023-12-04T07:55:03;-2.50;14.50
20574;DHT22;10445;50.216;7.912;2023-12-04T07:57:32;-2.50;13.60
20574;DHT22;10445;50.216;7.912;2023-12-04T08:00:00;-2.40;12.60
20574;DHT22;10445;50.216;7.912;2023-12-04T08:02:28;-2.40;12.50
20574;DHT22;10445;50.216;7.912;2023-12-04T08:04:58;-2.40;11.10
20574;DHT22;10445;50.216;7.912;2023-12-04T08:07:28;-2.40;11.90
20574;DHT22;10445;50.216;7.912;2023-12-04T08:09:56;-2.40;11.40
20574;DHT22;10445;50.216;7.912;2023-12-04T08:12:24;-2.40;11.30
20574;DHT22;10445;50.216;7.912;2023-12-04T08:14:54;-2.30;12.60
20574;DHT22;10445;50.216;7.912;2023-12-04T08:17:22;-2.40;11.80
20574;DHT22;10445;50.216;7.912;2023-12-04T08:19:50;-2.40;12.20
20574;DHT22;10445;50.216;7.912;2023-12-04T08:22:19;-2.40;11.30
20574;DHT22;10445;50.216;7.912;2023-12-04T08:24:49;-2.30;11.80
20574;DHT22;10445;50.216;7.912;2023-12-04T08:27:17;-2.40;10.80
20574;DHT22;10445;50.216;7.912;2023-12-04T08:29:45;-2.40;12.10
20574;DHT22;10445;50.216;7.912;2023-12-04T08:32:13;-2.40;11.80
20574;DHT22;10445;50.216;7.912;2023-12-04T08:34:42;-2.40;12.70
20574;DHT22;10445;50.216;7.912;2023-12-04T08:37:10;-2.40;11.50
20574;DHT22;10445;50.216;7.912;2023-12-04T08:39:38;-2.40;12.20
20574;DHT22;10445;50.216;7.912;2023-12-04T08:42:08;-2.40;13.10
20574;DHT22;10445;50.216;7.912;2023-12-04T08:44:46;-2.40;10.60
20574;DHT22;10445;50.216;7.912;2023-12-04T08:47:15;-2.40;10.50
20574;DHT22;10445;50.216;7.912;2023-12-04T08:49:43;-2.40;10.20
20574;DHT22;10445;50.216;7.912;2023-12-04T08:52:15;-2.40;10.90
20574;DHT22;10445;50.216;7.912;2023-12-04T08:54:44;-2.30;10.70
20574;DHT22;10445;50.216;7.912;2023-12-04T08:57:13;-2.40;11.00
20574;DHT22;10445;50.216;7.912;2023-12-04T08:59:42;-2.30;11.10
20574;DHT22;10445;50.216;7.912;2023-12-04T09:02:10;-2.30;11.30
20574;DHT22;10445;50.216;7.912;2023-12-04T09:04:41;-2.30;11.50
20574;DHT22;10445;50.216;7.912;2023-12-04T09:07:09;-2.30;12.10
20574;DHT22;10445;50.216;7.912;2023-12-04T09:09:59;-2.30;11.50
20574;DHT22;10445;50.216;7.912;2023-12-04T09:12:38;-2.30;13.00
20574;DHT22;10445;50.216;7.912;2023-12-04T09:15:07;-2.30;11.70
20574;DHT22;10445;50.216;7.912;2023-12-04T09:17:36;-2.20;11.50
20574;DHT22;10445;50.216;7.912;2023-12-04T09:20:06;-2.20;11.70
20574;DHT22;10445;50.216;7.912;2023-12-04T09:22:35;-2.30;12.00
20574;DHT22;10445;50.216;7.912;2023-12-04T09:25:18;-2.20;12.50
20574;DHT22;10445;50.216;7.912;2023-12-04T09:27:48;-2.20;12.80
20574;DHT22;10445;50.216;7.912;2023-12-04T09:30:16;-2.20;12.60
20574;DHT22;10445;50.216;7.912;2023-12-04T09:32:45;-2.10;11.20
20574;DHT22;10445;50.216;7.912;2023-12-04T09:35:13;-2.20;11.30
20574;DHT22;10445;50.216;7.912;2023-12-04T09:37:42;-2.20;13.50
20574;DHT22;10445;50.216;7.912;2023-12-04T09:40:11;-2.20;14.50
20574;DHT22;10445;50.216;7.912;2023-12-04T09:42:39;-2.20;13.40
20574;DHT22;10445;50.216;7.912;2023-12-04T09:45:10;-2.10;13.30
20574;DHT22;10445;50.216;7.912;2023-12-04T09:47:39;-2.20;12.30
20574;DHT22;10445;50.216;7.912;2023-12-04T09:50:09;-2.20;12.10
20574;DHT22;10445;50.216;7.912;2023-12-04T09:52:38;-2.20;13.40
20574;DHT22;10445;50.216;7.912;2023-12-04T09:55:07;-2.20;13.20
20574;DHT22;10445;50.216;7.912;2023-12-04T09:57:35;-2.20;11.40
20574;DHT22;10445;50.216;7.912;2023-12-04T10:00:05;-2.20;11.10
20574;DHT22;10445;50.216;7.912;2023-12-04T10:02:35;-2.20;10.90
20574;DHT22;10445;50.216;7.912;2023-12-04T10:05:04;-2.20;11.70
20574;DHT22;10445;50.216;7.912;2023-12-04T10:07:33;-2.20;11.60
20574;DHT22;10445;50.216;7.912;2023-12-04T10:10:03;-2.10;12.00
20574;DHT22;10445;50.216;7.912;2023-12-04T10:12:32;-2.10;13.10
20574;DHT22;10445;50.216;7.912;2023-12-04T10:15:06;-2.10;14.80
20574;DHT22;10445;50.216;7.912;2023-12-04T10:17:37;-2.10;16.10
20574;DHT22;10445;50.216;7.912;2023-12-04T10:20:08;-2.00;16.70
20574;DHT22;10445;50.216;7.912;2023-12-04T10:22:51;-2.10;17.00
20574;DHT22;10445;50.216;7.912;2023-12-04T10:25:20;-2.00;18.30
20574;DHT22;10445;50.216;7.912;2023-12-04T10:27:48;-2.00;18.30
20574;DHT22;10445;50.216;7.912;2023-12-04T10:30:24;-1.90;19.00
20574;DHT22;10445;50.216;7.912;2023-12-04T10:33:00;-1.90;18.60
20574;DHT22;10445;50.216;7.912;2023-12-04T10:35:29;-1.90;19.30
20574;DHT22;10445;50.216;7.912;2023-12-04T10:37:59;-1.80;18.70
20574;DHT22;10445;50.216;7.912;2023-12-04T10:40:29;-1.80;17.50
20574;DHT22;10445;50.216;7.912;2023-12-04T10:43:25;-1.70;15.30
20574;DHT22;10445;50.216;7.912;2023-12-04T10:45:53;-1.70;14.30
20574;DHT22;10445;50.216;7.912;2023-12-04T10:48:24;-1.70;13.80
20574;DHT22;10445;50.216;7.912;2023-12-04T10:50:55;-1.60;14.80
20574;DHT22;10445;50.216;7.912;2023-12-04T10:53:25;-1.50;13.20
20574;DHT22;10445;50.216;7.912;2023-12-04T10:55:56;-1.60;13.30
20574;DHT22;10445;50.216;7.912;2023-12-04T10:58:27;-1.60;14.90
20574;DHT22;10445;50.216;7.912;2023-12-04T11:00:56;-1.70;17.20
20574;DHT22;10445;50.216;7.912;2023-12-04T11:03:36;-1.70;18.30
20574;DHT22;10445;50.216;7.912;2023-12-04T11:06:08;-1.80;20.00
20574;DHT22;10445;50.216;7.912;2023-12-04T11:08:39;-1.80;21.80
20574;DHT22;10445;50.216;7.912;2023-12-04T11:11:12;-1.90;25.70
20574;DHT22;10445;50.216;7.912;2023-12-04T11:13:48;-2.00;30.60
20574;DHT22;10445;50.216;7.912;2023-12-04T11:16:22;-2.00;32.30
20574;DHT22;10445;50.216;7.912;2023-12-04T11:18:59;-2.10;34.30
20574;DHT22;10445;50.216;7.912;2023-12-04T11:21:32;-2.10;38.00
20574;DHT22;10445;50.216;7.912;2023-12-04T11:24:02;-2.10;41.00
20574;DHT22;10445;50.216;7.912;2023-12-04T11:26:33;-2.10;41.40
20574;DHT22;10445;50.216;7.912;2023-12-04T11:29:02;-2.10;42.70
20574;DHT22;10445;50.216;7.912;2023-12-04T11:31:31;-2.20;45.80
20574;DHT22;10445;50.216;7.912;2023-12-04T11:34:03;-2.20;47.50
20574;DHT22;10445;50.216;7.912;2023-12-04T11:36:33;-2.20;48.60
20574;DHT22;10445;50.216;7.912;2023-12-04T11:39:02;-2.10;51.40
20574;DHT22;10445;50.216;7.912;2023-12-04T11:41:32;-2.10;52.30
20574;DHT22;10445;50.216;7.912;2023-12-04T11:44:00;-2.10;53.20
20574;DHT22;10445;50.216;7.912;2023-12-04T11:46:29;-2.10;52.70
20574;DHT22;10445;50.216;7.912;2023-12-04T11:49:30;-2.10;53.80
20574;DHT22;10445;50.216;7.912;2023-12-04T11:51:59;-2.10;54.30
20574;DHT22;10445;50.216;7.912;2023-12-04T11:54:29;-2.10;55.30
20574;DHT22;10445;50.216;7.912;2023-12-04T11:57:19;-2.10;56.80
20574;DHT22;10445;50.216;7.912;2023-12-04T11:59:48;-2.00;56.80
20574;DHT22;10445;50.216;7.912;2023-12-04T12:02:17;-2.00;55.20
20574;DHT22;10445;50.216;7.912;2023-12-04T12:04:47;-2.10;56.70
20574;DHT22;10445;50.216;7.912;2023-12-04T12:07:15;-2.00;56.00
20574;DHT22;10445;50.216;7.912;2023-12-04T12:09:44;-2.00;55.20
20574;DHT22;10445;50.216;7.912;2023-12-04T12:12:15;-2.00;57.20
20574;DHT22;10445;50.216;7.912;2023-12-04T12:14:43;-2.00;58.40
20574;DHT22;10445;50.216;7.912;2023-12-04T12:17:12;-2.00;60.30
20574;DHT22;10445;50.216;7.912;2023-12-04T12:19:41;-2.00;58.80
20574;DHT22;10445;50.216;7.912;2023-12-04T12:22:11;-2.10;61.40
20574;DHT22;10445;50.216;7.912;2023-12-04T12:24:39;-2.00;60.40
20574;DHT22;10445;50.216;7.912;2023-12-04T12:27:08;-2.00;60.80
20574;DHT22;10445;50.216;7.912;2023-12-04T12:29:36;-2.00;61.60
20574;DHT22;10445;50.216;7.912;2023-12-04T12:32:05;-2.00;61.10
20574;DHT22;10445;50.216;7.912;2023-12-04T12:34:34;-2.00;60.70
20574;DHT22;10445;50.216;7.912;2023-12-04T12:37:03;-2.00;59.90
20574;DHT22;10445;50.216;7.912;2023-12-04T12:39:34;-2.00;60.70
20574;DHT22;10445;50.216;7.912;2023-12-04T12:42:03;-2.00;61.10
20574;DHT22;10445;50.216;7.912;2023-12-04T12:44:39;-2.00;60.70
20574;DHT22;10445;50.216;7.912;2023-12-04T12:47:09;-2.00;59.80
20574;DHT22;10445;50.216;7.912;2023-12-04T12:49:38;-2.10;59.80
20574;DHT22;10445;50.216;7.912;2023-12-04T12:52:09;-2.10;60.90
20574;DHT22;10445;50.216;7.912;2023-12-04T12:54:40;-2.00;61.40
20574;DHT22;10445;50.216;7.912;2023-12-04T12:57:09;-2.00;61.60
20574;DHT22;10445;50.216;7.912;2023-12-04T12:59:38;-2.00;61.90
20574;DHT22;10445;50.216;7.912;2023-12-04T13:02:07;-2.00;61.90
20574;DHT22;10445;50.216;7.912;2023-12-04T13:04:38;-2.10;64.80
20574;DHT22;10445;50.216;7.912;2023-12-04T13:07:07;-2.00;66.80
20574;DHT22;10445;50.216;7.912;2023-12-04T13:09:36;-2.10;67.10
20574;DHT22;10445;50.216;7.912;2023-12-04T13:12:07;-2.10;55.00
20574;DHT22;10445;50.216;7.912;2023-12-04T13:14:37;-2.10;56.60
20574;DHT22;10445;50.216;7.912;2023-12-04T13:17:06;-2.00;58.90
20574;DHT22;10445;50.216;7.912;2023-12-04T13:19:36;-2.00;59.40
20574;DHT22;10445;50.216;7.912;2023-12-04T13:22:05;-1.90;59.30
20574;DHT22;10445;50.216;7.912;2023-12-04T13:24:34;-1.80;58.20
20574;DHT22;10445;50.216;7.912;2023-12-04T13:27:02;-1.80;56.30
20574;DHT22;10445;50.216;7.912;2023-12-04T13:29:33;-1.80;55.60
20574;DHT22;10445;50.216;7.912;2023-12-04T13:32:01;-1.70;55.30
20574;DHT22;10445;50.216;7.912;2023-12-04T13:34:31;-1.70;54.10
20574;DHT22;10445;50.216;7.912;2023-12-04T13:37:00;-1.70;50.80
20574;DHT22;10445;50.216;7.912;2023-12-04T13:39:32;-1.80;48.50
20574;DHT22;10445;50.216;7.912;2023-12-04T13:42:15;-1.70;48.90
20574;DHT22;10445;50.216;7.912;2023-12-04T13:45:03;-1.70;46.60
20574;DHT22;10445;50.216;7.912;2023-12-04T13:47:36;-1.70;46.20
20574;DHT22;10445;50.216;7.912;2023-12-04T13:50:06;-1.80;46.20
20574;DHT22;10445;50.216;7.912;2023-12-04T13:52:35;-1.80;47.20
20574;DHT22;10445;50.216;7.912;2023-12-04T13:55:06;-1.80;49.20
20574;DHT22;10445;50.216;7.912;2023-12-04T13:57:42;-1.90;50.30
20574;DHT22;10445;50.216;7.912;2023-12-04T14:00:25;-1.80;50.30
20574;DHT22;10445;50.216;7.912;2023-12-04T14:02:53;-1.90;48.90
20574;DHT22;10445;50.216;7.912;2023-12-04T14:05:31;-1.80;48.10
20574;DHT22;10445;50.216;7.912;2023-12-04T14:08:01;-1.80;48.90
20574;DHT22;10445;50.216;7.912;2023-12-04T14:10:32;-1.90;50.50
20574;DHT22;10445;50.216;7.912;2023-12-04T14:13:01;-1.90;53.30
20574;DHT22;10445;50.216;7.912;2023-12-04T14:15:30;-1.90;54.80
20574;DHT22;10445;50.216;7.912;2023-12-04T14:17:59;-2.00;56.00
20574;DHT22;10445;50.216;7.912;2023-12-04T14:20:27;-2.00;56.90
20574;DHT22;10445;50.216;7.912;2023-12-04T14:22:55;-2.00;59.10
20574;DHT22;10445;50.216;7.912;2023-12-04T14:25:24;-2.00;60.90
20574;DHT22;10445;50.216;7.912;2023-12-04T14:27:52;-2.00;63.10
20574;DHT22;10445;50.216;7.912;2023-12-04T14:30:20;-1.90;63.40
20574;DHT22;10445;50.216;7.912;2023-12-04T14:32:50;-1.90;62.80
20574;DHT22;10445;50.216;7.912;2023-12-04T14:35:19;-1.90;64.10
20574;DHT22;10445;50.216;7.912;2023-12-04T14:37:47;-1.90;63.80
20574;DHT22;10445;50.216;7.912;2023-12-04T14:40:17;-1.90;65.00
20574;DHT22;10445;50.216;7.912;2023-12-04T14:42:47;-1.80;63.40
20574;DHT22;10445;50.216;7.912;2023-12-04T14:45:15;-1.80;64.20
20574;DHT22;10445;50.216;7.912;2023-12-04T14:47:43;-1.70;64.30
20574;DHT22;10445;50.216;7.912;2023-12-04T14:50:16;-1.70;64.10
20574;DHT22;10445;50.216;7.912;2023-12-04T14:52:45;-1.60;66.90
20574;DHT22;10445;50.216;7.912;2023-12-04T14:55:17;-1.60;68.60
20574;DHT22;10445;50.216;7.912;2023-12-04T14:58:03;-1.60;70.80
20574;DHT22;10445;50.216;7.912;2023-12-04T15:01:08;-1.50;73.10
20574;DHT22;10445;50.216;7.912;2023-12-04T15:03:54;-1.50;73.50
20574;DHT22;10445;50.216;7.912;2023-12-04T15:06:41;-1.40;77.00
20574;DHT22;10445;50.216;7.912;2023-12-04T15:09:32;-1.40;79.90
20574;DHT22;10445;50.216;7.912;2023-12-04T15:12:33;-1.40;80.80
20574;DHT22;10445;50.216;7.912;2023-12-04T15:15:21;-1.40;84.80
20574;DHT22;10445;50.216;7.912;2023-12-04T15:18:03;-1.40;85.30
20574;DHT22;10445;50.216;7.912;2023-12-04T15:20:45;-1.40;86.80
20574;DHT22;10445;50.216;7.912;2023-12-04T15:23:16;-1.50;87.10
20574;DHT22;10445;50.216;7.912;2023-12-04T15:25:43;-1.40;88.90
20574;DHT22;10445;50.216;7.912;2023-12-04T15:28:12;-1.50;91.80
20574;DHT22;10445;50.216;7.912;2023-12-04T15:30:40;-1.40;91.20
20574;DHT22;10445;50.216;7.912;2023-12-04T15:33:08;-1.40;91.40
20574;DHT22;10445;50.216;7.912;2023-12-04T15:35:37;-1.40;91.30
20574;DHT22;10445;50.216;7.912;2023-12-04T15:38:04;-1.30;91.60
20574;DHT22;10445;50.216;7.912;2023-12-04T15:40:34;-1.30;92.00
20574;DHT22;10445;50.216;7.912;2023-12-04T15:43:01;-1.30;92.10
20574;DHT22;10445;50.216;7.912;2023-12-04T15:45:30;-1.30;91.50
20574;DHT22;10445;50.216;7.912;2023-12-04T15:47:58;-1.30;91.60